Time;durP1;ratioP1;P1;durP2;ratioP2;P2;SDS_P1;SDS_P2;PMS_P1;PMS_P2;Temp;Humidity;BMP_temperature;BMP_pressure;BME280_temperature;BME280_humidity;BME280_pressure;Samples;Min_cycle;Max_cycle;Signal;HPM_P1;HPM_P2
2023/07/03 00:00:42;;;;;;;104.27;8.00;;;;;;;24.86;61.23;98899.59;7304058;19;130473;-39
2023/07/03 00:03:08;;;;;;;72.55;6.97;;;;;;;24.86;61.50;98905.66;7304241;19;129949;-41
2023/07/03 00:05:35;;;;;;;69.93;6.75;;;;;;;24.85;60.96;98905.84;7304196;19;130035;-41
2023/07/03 00:08:00;;;;;;;80.35;7.30;;;;;;;24.87;61.50;98903.88;7301847;19;129901;-43
2023/07/03 00:10:25;;;;;;;102.63;8.13;;;;;;;24.85;61.25;98903.22;7302358;19;130034;-41
2023/07/03 00:12:51;;;;;;;86.47;7.60;;;;;;;24.86;61.02;98908.28;7302015;19;130041;-39
2023/07/03 00:15:16;;;;;;;71.37;6.87;;;;;;;24.86;61.36;98903.03;7302453;19;130426;-38
2023/07/03 00:17:44;;;;;;;77.87;6.67;;;;;;;24.84;61.68;98901.59;7302093;19;129674;-39
2023/07/03 00:20:13;;;;;;;91.15;7.82;;;;;;;24.86;61.39;98910.13;7303005;19;130742;-43
2023/07/03 00:22:39;;;;;;;85.28;7.35;;;;;;;24.87;61.25;98906.50;7303556;19;131221;-42
2023/07/03 00:25:05;;;;;;;44.93;5.27;;;;;;;24.88;61.01;98900.22;7302695;19;130383;-40
2023/07/03 00:27:30;;;;;;;68.07;6.43;;;;;;;24.84;60.82;98888.44;7300515;19;131121;-41
2023/07/03 00:29:55;;;;;;;82.07;6.73;;;;;;;24.78;61.05;98889.13;7299617;19;131198;-38
2023/07/03 00:32:21;;;;;;;69.40;6.67;;;;;;;24.84;61.57;98897.13;7303302;19;130228;-41
2023/07/03 00:34:46;;;;;;;74.90;6.67;;;;;;;24.86;60.81;98899.59;7303473;19;130079;-40
2023/07/03 00:37:11;;;;;;;80.77;7.40;;;;;;;24.87;61.40;98899.44;7302001;19;129676;-39
2023/07/03 00:39:37;;;;;;;88.37;7.33;;;;;;;24.75;60.99;98874.53;7300215;19;130360;-41
2023/07/03 00:42:02;;;;;;;64.30;5.70;;;;;;;24.84;60.73;98888.44;7302142;19;130323;-40
2023/07/03 00:44:28;;;;;;;73.17;6.13;;;;;;;24.88;60.95;98892.34;7301454;19;130037;-38
2023/07/03 00:46:53;;;;;;;76.13;6.67;;;;;;;24.86;61.60;98895.16;7301763;19;129987;-40
2023/07/03 00:49:20;;;;;;;71.47;6.37;;;;;;;24.87;61.24;98893.34;7301397;19;129652;-42
2023/07/03 00:51:52;;;;;;;89.53;7.32;;;;;;;24.87;61.63;98893.34;7302015;19;130547;-38
2023/07/03 00:54:17;;;;;;;71.45;6.70;;;;;;;24.84;61.24;98883.19;7302240;19;130474;-40
2023/07/03 00:56:43;;;;;;;77.87;7.03;;;;;;;24.88;61.53;98889.72;7301364;19;129592;-38
2023/07/03 00:59:08;;;;;;;79.63;6.70;;;;;;;24.87;61.57;98893.34;7301585;19;131416;-39
2023/07/03 01:01:51;;;;;;;47.93;5.00;;;;;;;24.88;62.18;98890.53;7301657;19;129788;-40
2023/07/03 01:04:22;;;;;;;76.85;6.47;;;;;;;24.88;61.53;98892.34;7302821;19;129546;-40
2023/07/03 01:06:54;;;;;;;83.72;7.20;;;;;;;24.87;61.63;98895.97;7301725;19;130078;-41
2023/07/03 01:09:23;;;;;;;72.40;6.55;;;;;;;24.86;61.96;98889.09;7299584;19;128967;-40
2023/07/03 01:11:49;;;;;;;105.35;8.25;;;;;;;24.86;61.43;98891.72;7300361;19;129584;-39
2023/07/03 01:14:18;;;;;;;71.72;6.30;;;;;;;24.85;61.10;98892.69;7301718;19;130104;-39
2023/07/03 01:16:44;;;;;;;57.08;6.07;;;;;;;24.79;61.68;98882.91;7299000;19;129765;-40
2023/07/03 01:19:14;;;;;;;71.10;6.40;;;;;;;24.87;61.58;98888.09;7299251;19;130018;-40
2023/07/03 01:21:51;;;;;;;92.05;7.63;;;;;;;24.78;61.46;98865.47;7300018;19;129657;-40
2023/07/03 01:24:47;;;;;;;83.00;6.72;;;;;;;24.91;61.34;98877.03;7302046;19;130368;-39
2023/07/03 01:27:16;;;;;;;122.63;9.40;;;;;;;24.78;61.33;98863.66;7298354;19;131816;-39
2023/07/03 01:29:43;;;;;;;70.07;6.30;;;;;;;24.86;61.41;98860.16;7298735;19;129818;-40
2023/07/03 01:32:11;;;;;;;85.03;7.13;;;;;;;24.85;61.21;98855.88;7299613;19;129241;-40
2023/07/03 01:34:42;;;;;;;66.07;6.13;;;;;;;24.86;61.58;98855.72;7300156;19;129545;-42
2023/07/03 01:37:09;;;;;;;109.28;8.90;;;;;;;24.86;61.57;98850.44;7300246;19;131277;-38
2023/07/03 01:39:35;;;;;;;74.90;6.30;;;;;;;24.85;61.68;98848.00;7298221;19;130389;-40
2023/07/03 01:42:02;;;;;;;59.20;5.53;;;;;;;24.84;61.55;98844.53;7302290;19;129507;-42
2023/07/03 01:44:27;;;;;;;73.28;6.55;;;;;;;24.86;61.50;98849.66;7299980;19;130229;-42
2023/07/03 01:46:53;;;;;;;55.40;5.30;;;;;;;24.86;61.41;98839.13;7298322;19;129852;-40
2023/07/03 01:49:18;;;;;;;79.87;6.80;;;;;;;24.87;61.20;98846.00;7297971;19;129983;-39
2023/07/03 01:51:58;;;;;;;90.37;7.17;;;;;;;24.88;61.82;98840.56;7300511;19;130153;-38
2023/07/03 01:54:40;;;;;;;75.78;6.28;;;;;;;24.87;62.15;98846.00;7300642;19;130357;-41
2023/07/03 01:57:07;;;;;;;112.85;8.80;;;;;;;24.86;61.65;98844.41;7298137;19;130257;-38
2023/07/03 01:59:34;;;;;;;71.07;6.18;;;;;;;24.87;61.50;98846.84;7298200;19;130496;-38
2023/07/03 02:02:11;;;;;;;97.30;7.47;;;;;;;24.86;61.70;98847.03;7300283;19;129792;-39
2023/07/03 02:04:40;;;;;;;59.25;5.55;;;;;;;24.86;61.50;98837.28;7300319;19;129857;-42
2023/07/03 02:07:07;;;;;;;93.60;7.85;;;;;;;24.85;61.43;98832.22;7299906;19;129877;-42
2023/07/03 02:09:33;;;;;;;69.53;5.90;;;;;;;24.85;61.64;98832.22;7298768;19;130677;-38
2023/07/03 02:11:58;;;;;;;90.43;7.23;;;;;;;24.86;61.78;98828.63;7300180;19;131135;-39
2023/07/03 02:14:24;;;;;;;82.50;6.77;;;;;;;24.83;61.79;98827.16;7299345;19;129369;-40
2023/07/03 02:16:52;;;;;;;79.60;6.43;;;;;;;24.86;61.30;98828.63;7301015;19;130290;-38
2023/07/03 02:19:19;;;;;;;72.50;6.60;;;;;;;24.84;61.16;98825.34;7297045;19;131465;-39
2023/07/03 02:21:45;;;;;;;96.20;7.40;;;;;;;24.86;61.63;98828.63;7298155;19;130096;-38
2023/07/03 02:24:12;;;;;;;79.93;6.60;;;;;;;24.84;61.62;98825.34;7300332;19;130934;-40
2023/07/03 02:26:37;;;;;;;;;;;;;;;24.94;62.02;98836.41;7299231;19;130345;-39
2023/07/03 02:29:02;;;;;;;62.25;5.75;;;;;;;24.87;61.08;98836.31;7296980;19;131016;-41
2023/07/03 02:31:28;;;;;;;85.47;7.07;;;;;;;24.87;61.16;98835.50;7298132;19;131029;-41
2023/07/03 02:33:53;;;;;;;82.57;6.80;;;;;;;24.87;61.35;98836.31;7299458;19;131808;-40
2023/07/03 02:36:19;;;;;;;67.13;5.70;;;;;;;24.87;61.02;98838.13;7299783;19;131241;-41
2023/07/03 02:38:44;;;;;;;107.63;8.00;;;;;;;24.87;61.40;98840.75;7296380;19;129327;-39
2023/07/03 02:41:10;;;;;;;93.87;7.27;;;;;;;24.87;61.33;98832.88;7297648;19;129780;-38
2023/07/03 02:43:35;;;;;;;75.90;6.27;;;;;;;24.86;61.41;98828.63;7299275;19;131225;-41
2023/07/03 02:46:05;;;;;;;75.73;6.20;;;;;;;24.86;61.97;98829.41;7299165;19;129914;-40
2023/07/03 02:48:31;;;;;;;86.40;6.68;;;;;;;24.85;61.64;98825.16;7297197;19;130082;-41
2023/07/03 02:50:56;;;;;;;81.57;6.43;;;;;;;24.83;61.31;98823.69;7298465;19;130291;-40
2023/07/03 02:53:22;;;;;;;69.73;5.80;;;;;;;24.87;61.18;98824.97;7299607;19;130377;-40
2023/07/03 02:55:53;;;;;;;77.47;6.57;;;;;;;24.86;61.58;98818.09;7298338;19;131216;-39
2023/07/03 02:58:18;;;;;;;66.93;5.90;;;;;;;24.86;61.02;98821.53;7295943;19;129838;-38
2023/07/03 03:00:44;;;;;;;93.33;7.17;;;;;;;24.86;61.40;98818.91;7303926;19;131198;-38
2023/07/03 03:03:09;;;;;;;76.93;6.13;;;;;;;24.87;60.95;98811.84;7305496;19;129038;-40
2023/07/03 03:05:34;;;;;;;72.60;6.13;;;;;;;24.84;61.05;98814.81;7306161;19;130642;-38
2023/07/03 03:08:00;;;;;;;92.23;7.40;;;;;;;24.86;61.87;98816.25;7303878;19;130729;-39
2023/07/03 03:10:25;;;;;;;103.57;8.00;;;;;;;24.86;61.54;98815.47;7303998;19;130778;-41
2023/07/03 03:12:51;;;;;;;84.57;7.00;;;;;;;24.87;61.86;98819.72;7304337;19;130290;-38
2023/07/03 03:15:18;;;;;;;64.23;5.53;;;;;;;24.87;61.40;98814.47;7303601;19;129736;-38
2023/07/03 03:17:44;;;;;;;93.45;7.40;;;;;;;24.86;61.15;98812.84;7302855;19;129424;-39
2023/07/03 03:20:11;;;;;;;94.57;6.87;;;;;;;24.86;61.86;98816.25;7303475;19;130040;-42
2023/07/03 03:22:36;;;;;;;71.25;6.35;;;;;;;24.84;61.15;98805.09;7305712;19;131181;-38
2023/07/03 03:25:02;;;;;;;72.67;6.07;;;;;;;24.87;61.53;98822.34;7305040;19;131578;-38
2023/07/03 03:27:27;;;;;;;62.27;5.70;;;;;;;24.87;61.42;98819.72;7302779;19;130822;-38
2023/07/03 03:29:53;;;;;;;78.67;6.17;;;;;;;24.86;61.79;98818.91;7303835;19;131377;-42
2023/07/03 03:32:18;;;;;;;89.67;6.97;;;;;;;24.87;61.34;98819.72;7305299;19;129741;-39
2023/07/03 03:34:43;;;;;;;83.30;6.67;;;;;;;24.77;61.79;98801.59;7303984;19;130270;-38
2023/07/03 03:37:09;;;;;;;107.00;7.93;;;;;;;24.86;61.74;98818.91;7303739;19;129817;-39
2023/07/03 03:39:34;;;;;;;68.40;5.83;;;;;;;24.87;61.77;98815.28;7301335;19;130805;-38
2023/07/03 03:42:00;;;;;;;73.53;6.20;;;;;;;24.87;61.83;98811.84;7303189;19;132077;-40
2023/07/03 03:44:25;;;;;;;101.67;7.43;;;;;;;24.87;61.38;98815.28;7303841;19;129626;-42
2023/07/03 03:46:54;;;;;;;96.93;7.67;;;;;;;24.87;62.07;98820.53;7303106;19;129946;-42
2023/07/03 03:49:19;;;;;;;84.57;6.57;;;;;;;24.87;61.21;98814.47;7302394;19;130268;-40
2023/07/03 03:51:45;;;;;;;96.80;7.67;;;;;;;24.85;61.11;98811.19;7299759;19;129645;-39
2023/07/03 03:54:10;;;;;;;86.87;6.87;;;;;;;24.88;61.27;98813.44;7303009;19;130445;-38
2023/07/03 03:56:36;;;;;;;116.90;8.77;;;;;;;24.88;61.16;98810.81;7302198;19;130863;-38
2023/07/03 03:59:01;;;;;;;74.67;5.87;;;;;;;24.88;61.42;98813.44;7304302;19;130758;-39
2023/07/03 04:01:27;;;;;;;61.43;5.60;;;;;;;24.89;61.47;98818.53;7303558;19;129894;-41
2023/07/03 04:03:52;;;;;;;49.93;5.07;;;;;;;24.88;61.24;98816.09;7302843;19;131368;-38
2023/07/03 04:06:17;;;;;;;71.73;5.93;;;;;;;24.88;61.15;98813.44;7305169;19;128904;-40
2023/07/03 04:08:43;;;;;;;73.73;6.10;;;;;;;24.77;61.50;98801.59;7305030;19;130769;-40
2023/07/03 04:11:09;;;;;;;64.07;5.33;;;;;;;24.87;61.75;98822.34;7304864;19;130134;-38
2023/07/03 04:13:34;;;;;;;71.27;6.03;;;;;;;24.86;61.19;98820.72;7305212;19;130625;-40
2023/07/03 04:16:01;;;;;;;95.03;7.17;;;;;;;24.86;61.68;98828.63;7304326;19;129164;-39
2023/07/03 04:18:28;;;;;;;61.10;5.43;;;;;;;24.86;61.80;98823.34;7304795;19;130761;-39
2023/07/03 04:20:53;;;;;;;65.70;5.20;;;;;;;24.86;61.12;98818.09;7304992;19;130365;-38
2023/07/03 04:23:19;;;;;;;78.43;6.40;;;;;;;24.78;61.74;98805.00;7302283;19;130300;-38
2023/07/03 04:25:44;;;;;;;103.17;7.40;;;;;;;24.86;61.59;98824.16;7304418;19;130023;-43
2023/07/03 04:28:11;;;;;;;62.27;5.43;;;;;;;24.87;61.04;98822.34;7305121;19;130463;-40
2023/07/03 04:30:36;;;;;;;103.15;7.57;;;;;;;24.86;61.55;98829.41;7304628;19;129618;-40
2023/07/03 04:33:02;;;;;;;82.60;6.63;;;;;;;24.86;61.87;98824.16;7301541;19;130949;-41
2023/07/03 04:35:27;;;;;;;61.50;5.10;;;;;;;24.86;61.54;98818.09;7302578;19;130904;-42
2023/07/03 04:37:53;;;;;;;78.63;6.20;;;;;;;24.85;61.40;98822.53;7303816;19;129923;-43
2023/07/03 04:40:18;;;;;;;95.53;7.30;;;;;;;24.76;61.13;98804.38;7301609;19;129238;-40
2023/07/03 04:42:44;;;;;;;110.37;7.67;;;;;;;24.86;61.26;98828.63;7302005;19;130333;-38
2023/07/03 04:45:10;;;;;;;80.37;6.40;;;;;;;24.87;61.53;98830.25;7306930;19;130227;-42
2023/07/03 04:47:39;;;;;;;81.55;6.18;;;;;;;24.86;61.60;98833.88;7301221;19;129585;-39
2023/07/03 04:50:07;;;;;;;67.05;5.75;;;;;;;24.86;61.20;98836.50;7303873;19;131349;-40
2023/07/03 04:52:33;;;;;;;83.03;6.32;;;;;;;24.86;61.93;98836.50;7303605;19;130309;-38
2023/07/03 04:54:58;;;;;;;65.13;5.27;;;;;;;24.77;61.44;98825.25;7302933;19;130951;-44
2023/07/03 04:57:24;;;;;;;47.13;4.53;;;;;;;24.85;61.83;98832.22;7302587;19;129321;-40
2023/07/03 04:59:49;;;;;;;81.90;6.43;;;;;;;24.78;61.46;98828.66;7300169;19;129543;-39
2023/07/03 05:02:19;;;;;;;82.43;6.30;;;;;;;24.86;61.71;98845.19;7303134;19;130127;-40
2023/07/03 05:04:45;;;;;;;86.80;6.55;;;;;;;24.85;61.18;98848.81;7303635;19;129607;-40
2023/07/03 05:07:10;;;;;;;67.77;5.70;;;;;;;24.76;61.96;98822.78;7303786;19;130542;-41
2023/07/03 05:09:35;;;;;;;59.40;5.07;;;;;;;24.86;61.35;98852.28;7301069;19;129472;-41
2023/07/03 05:12:01;;;;;;;94.23;6.73;;;;;;;24.86;61.18;98847.81;7301177;19;130330;-38
2023/07/03 05:14:26;;;;;;;73.37;5.63;;;;;;;24.84;61.25;98846.38;7302669;19;130133;-39
2023/07/03 05:16:52;;;;;;;104.40;8.03;;;;;;;24.86;61.47;98849.66;7299221;19;129869;-40
2023/07/03 05:19:17;;;;;;;142.23;10.13;;;;;;;24.86;61.22;98844.41;7281473;19;131553;-41
2023/07/03 05:21:42;;;;;;;78.93;6.20;;;;;;;24.87;61.29;98851.28;7290308;19;129568;-39
2023/07/03 05:24:08;;;;;;;103.50;7.93;;;;;;;24.86;61.79;98844.41;7299552;19;129689;-39
2023/07/03 05:26:33;;;;;;;76.30;6.27;;;;;;;24.86;61.78;98847.81;7301883;19;129985;-38
2023/07/03 05:28:59;;;;;;;100.77;7.50;;;;;;;24.87;61.43;98846.00;7296106;19;130394;-38
2023/07/03 05:31:24;;;;;;;89.27;6.80;;;;;;;24.87;61.37;98856.53;7299431;19;129925;-40
2023/07/03 05:33:50;;;;;;;74.37;6.13;;;;;;;24.87;61.74;98851.28;7302250;19;129592;-40
2023/07/03 05:36:16;;;;;;;76.82;6.38;;;;;;;24.86;61.55;98849.66;7300097;19;130475;-39
2023/07/03 05:38:41;;;;;;;75.87;6.53;;;;;;;24.87;61.74;98851.28;7297406;19;130820;-40
2023/07/03 05:41:06;;;;;;;92.10;7.70;;;;;;;24.86;61.88;98844.41;7299934;19;130553;-41
2023/07/03 05:43:32;;;;;;;87.17;6.93;;;;;;;24.86;61.41;98852.28;7303506;19;129612;-38
2023/07/03 05:45:57;;;;;;;95.47;7.37;;;;;;;24.85;61.26;98854.09;7300104;19;129940;-43
2023/07/03 05:48:24;;;;;;;94.23;8.83;;;;;;;24.84;60.23;98860.31;7300248;19;129504;-41
2023/07/03 05:50:49;;;;;;;128.35;10.48;;;;;;;24.82;60.85;98861.50;7296961;19;129577;-39
2023/07/03 05:53:15;;;;;;;68.13;7.67;;;;;;;24.82;61.25;98858.88;7302549;19;130574;-39
2023/07/03 05:55:41;;;;;;;112.77;9.73;;;;;;;24.82;61.36;98859.72;7300973;19;129459;-40
2023/07/03 05:58:06;;;;;;;98.80;10.20;;;;;;;24.85;60.26;98863.78;7297247;19;131024;-39
2023/07/03 06:00:32;;;;;;;73.20;9.17;;;;;;;24.86;60.63;98878.56;7301358;19;130306;-37
2023/07/03 06:02:58;;;;;;;87.63;10.37;;;;;;;24.85;60.81;98869.03;7301995;19;129920;-42
2023/07/03 06:05:24;;;;;;;61.58;8.25;;;;;;;24.80;60.79;98866.13;7303461;19;129522;-40
2023/07/03 06:07:49;;;;;;;101.07;10.20;;;;;;;24.87;60.24;98877.56;7301781;19;130926;-41
2023/07/03 06:10:15;;;;;;;95.80;9.93;;;;;;;24.86;60.48;98883.84;7301169;19;130018;-39
2023/07/03 06:12:42;;;;;;;73.70;9.20;;;;;;;24.86;59.84;98881.22;7299967;19;131052;-41
2023/07/03 06:15:08;;;;;;;;;;;;;;;24.94;60.66;98883.75;7299725;19;129972;-42
2023/07/03 06:17:33;;;;;;;94.07;10.43;;;;;;;24.87;60.29;98882.81;7299478;19;131012;-41
2023/07/03 06:19:58;;;;;;;56.53;8.73;;;;;;;24.86;59.81;98883.84;7297372;19;130575;-40
2023/07/03 06:22:24;;;;;;;68.23;8.57;;;;;;;24.86;59.62;98884.63;7299393;19;130241;-38
2023/07/03 06:24:49;;;;;;;86.70;9.73;;;;;;;24.84;60.19;98893.69;7299654;19;130869;-39
2023/07/03 06:27:15;;;;;;;122.93;11.97;;;;;;;24.87;59.81;98893.34;7296941;19;131350;-42
2023/07/03 06:29:41;;;;;;;99.43;10.40;;;;;;;24.87;59.52;98888.91;7296970;19;130513;-42
2023/07/03 06:32:09;;;;;;;80.73;8.87;;;;;;;24.87;59.79;98895.97;7295145;19;130601;-41
2023/07/03 06:34:34;;;;;;;75.95;9.38;;;;;;;24.87;59.78;98888.09;7299139;19;130623;-38
2023/07/03 06:37:00;;;;;;;115.87;11.03;;;;;;;24.87;59.88;98890.72;7296882;19;129839;-39
2023/07/03 06:39:26;;;;;;;86.10;9.73;;;;;;;24.87;59.54;98901.22;7296938;19;129369;-37
2023/07/03 06:41:51;;;;;;;98.30;10.67;;;;;;;24.87;60.11;98903.88;7297003;19;130794;-42
2023/07/03 06:44:18;;;;;;;77.03;8.60;;;;;;;24.86;59.99;98900.41;7299149;19;130593;-36
2023/07/03 06:46:44;;;;;;;;;;;;;;;24.94;60.44;98900.34;7300376;19;130313;-41
2023/07/03 06:49:09;;;;;;;78.38;8.73;;;;;;;24.88;59.89;98895.78;7297767;19;129807;-40
2023/07/03 06:51:36;;;;;;;55.77;7.63;;;;;;;24.86;60.21;98896.97;7300985;19;130941;-37
2023/07/03 06:54:02;;;;;;;;;;;;;;;24.95;60.35;98903.78;7296780;19;130543;-41
2023/07/03 06:56:28;;;;;;;96.90;9.73;;;;;;;24.87;59.80;98890.72;7297567;19;130652;-40
2023/07/03 06:58:53;;;;;;;70.45;8.52;;;;;;;24.86;60.22;98892.53;7295291;19;130638;-40
2023/07/03 07:01:23;;;;;;;57.57;8.03;;;;;;;24.86;59.79;98889.88;7294247;19;129252;-42
2023/07/03 07:03:49;;;;;;;79.15;8.68;;;;;;;24.86;60.15;98892.53;7297879;19;129171;-41
2023/07/03 07:06:21;;;;;;;109.90;10.37;;;;;;;24.87;60.71;98903.88;7296977;19;129616;-39
2023/07/03 07:08:46;;;;;;;83.82;9.50;;;;;;;24.87;59.89;98893.34;7296588;19;130823;-40
2023/07/03 07:11:17;;;;;;;92.33;10.23;;;;;;;24.85;60.05;98890.91;7297752;19;131185;-42
2023/07/03 07:13:45;;;;;;;85.07;9.43;;;;;;;24.86;59.95;98891.72;7296749;19;129820;-42
2023/07/03 07:16:15;;;;;;;92.85;9.50;;;;;;;24.86;59.71;98903.03;7297160;19;129726;-42
2023/07/03 07:18:41;;;;;;;79.40;9.20;;;;;;;24.87;59.57;98895.97;7297738;19;130749;-42
2023/07/03 07:21:07;;;;;;;73.38;8.18;;;;;;;24.87;60.14;98895.97;7294932;19;131162;-42
2023/07/03 07:23:32;;;;;;;80.93;8.73;;;;;;;24.87;60.12;98899.44;7297408;19;129709;-43
2023/07/03 07:25:58;;;;;;;109.07;10.40;;;;;;;24.85;59.47;98893.53;7296354;19;131248;-42
2023/07/03 07:28:23;;;;;;;90.07;9.50;;;;;;;24.88;59.94;98905.47;7296167;19;129938;-39
2023/07/03 07:30:49;;;;;;;61.47;8.17;;;;;;;24.84;59.93;98883.97;7296058;19;130073;-42
2023/07/03 07:33:15;;;;;;;53.00;6.77;;;;;;;24.87;59.98;98898.59;7298857;19;130065;-39
2023/07/03 07:35:41;;;;;;;89.00;9.37;;;;;;;24.87;60.28;98903.88;7297434;19;129932;-40
2023/07/03 07:38:07;;;;;;;89.25;9.18;;;;;;;24.86;59.59;98896.97;7296655;19;130710;-42
2023/07/03 07:40:32;;;;;;;82.07;8.50;;;;;;;24.86;60.07;98907.50;7295779;19;129873;-41
2023/07/03 07:42:57;;;;;;;69.03;8.20;;;;;;;24.85;59.66;98887.44;7298524;19;129991;-40
2023/07/03 07:45:23;;;;;;;86.83;8.80;;;;;;;24.76;60.17;98872.75;7301391;19;129702;-41
2023/07/03 07:47:48;;;;;;;90.77;9.27;;;;;;;24.87;59.78;98903.88;7303894;19;130907;-40
2023/07/03 07:50:13;;;;;;;77.53;8.03;;;;;;;24.84;60.24;98893.69;7305397;19;130620;-37
2023/07/03 07:52:39;;;;;;;117.47;10.37;;;;;;;24.86;59.41;98896.97;7303752;19;129315;-41
2023/07/03 07:55:05;;;;;;;74.90;8.30;;;;;;;24.85;59.60;98892.69;7304564;19;130704;-41
2023/07/03 07:57:30;;;;;;;102.60;9.10;;;;;;;24.84;59.90;98891.06;7305128;19;129750;-38
2023/07/03 07:59:56;;;;;;;76.13;8.50;;;;;;;24.81;60.03;98886.19;7302238;19;129218;-42
2023/07/03 08:02:21;;;;;;;117.33;10.17;;;;;;;24.87;60.30;98899.44;7304859;19;130875;-42
2023/07/03 08:04:46;;;;;;;76.50;8.07;;;;;;;24.86;59.84;98903.03;7304061;19;131113;-37
2023/07/03 08:07:12;;;;;;;82.67;8.73;;;;;;;24.88;60.03;98892.34;7306571;19;129898;-41
2023/07/03 08:09:38;;;;;;;92.10;8.83;;;;;;;24.77;59.74;98890.13;7299065;19;130910;-42
2023/07/03 08:12:04;;;;;;;83.43;8.37;;;;;;;24.87;60.04;98906.50;7302874;19;130093;-41
2023/07/03 08:14:30;;;;;;;;;;;;;;;24.92;60.55;98896.25;7304498;19;131514;-41
2023/07/03 08:16:55;;;;;;;96.97;9.35;;;;;;;24.89;60.19;98907.13;7306454;19;129676;-41
2023/07/03 08:19:21;;;;;;;103.47;9.40;;;;;;;24.88;60.18;98905.47;7303302;19;130046;-39
2023/07/03 08:21:46;;;;;;;104.20;8.93;;;;;;;24.77;60.01;98877.81;7305798;19;129883;-39
2023/07/03 08:24:11;;;;;;;76.30;7.83;;;;;;;24.87;59.45;98896.81;7307156;19;129487;-39
2023/07/03 08:26:37;;;;;;;77.60;7.97;;;;;;;24.88;60.22;98905.47;7306182;19;130700;-42
2023/07/03 08:29:02;;;;;;;70.30;7.60;;;;;;;24.86;60.17;98908.28;7298785;19;130270;-42
2023/07/03 08:31:28;;;;;;;80.37;7.73;;;;;;;24.86;59.84;98908.28;7303948;19;129800;-40
2023/07/03 08:33:54;;;;;;;64.30;7.37;;;;;;;24.84;60.26;98906.84;7304965;19;129906;-42
2023/07/03 08:36:21;;;;;;;56.70;6.93;;;;;;;24.85;60.31;98913.72;7304172;19;129636;-41
2023/07/03 08:38:46;;;;;;;;;;;;;;;24.94;60.49;98920.56;7297366;19;130840;-42
2023/07/03 08:41:13;;;;;;;105.85;9.60;;;;;;;24.78;59.82;98904.91;7298167;19;130122;-37
2023/07/03 08:43:58;;;;;;;88.90;8.27;;;;;;;24.90;60.56;98929.81;7304412;19;130023;-40
2023/07/03 08:46:27;;;;;;;95.47;8.77;;;;;;;24.86;59.97;98907.50;7305825;19;130123;-40
2023/07/03 08:48:56;;;;;;;109.03;9.65;;;;;;;24.86;60.07;98910.13;7298501;19;131923;-40
2023/07/03 08:51:26;;;;;;;73.63;7.22;;;;;;;24.86;60.26;98912.75;7304470;19;130041;-40
2023/07/03 08:53:56;;;;;;;76.18;7.50;;;;;;;24.87;60.43;98914.38;7301270;19;130191;-41
2023/07/03 08:56:24;;;;;;;72.82;8.05;;;;;;;24.87;60.12;98907.31;7302558;19;129160;-40
2023/07/03 08:58:51;;;;;;;64.72;7.47;;;;;;;24.84;59.99;98896.34;7302290;19;129383;-38
2023/07/03 09:01:41;;;;;;;91.68;8.63;;;;;;;24.87;60.20;98909.13;7299756;19;129613;-40
2023/07/03 09:04:34;;;;;;;86.40;8.38;;;;;;;24.89;60.67;98904.50;7303742;19;129824;-40
2023/07/03 09:07:04;;;;;;;91.45;9.35;;;;;;;24.87;60.24;98903.88;7302950;19;130241;-42
2023/07/03 09:09:42;;;;;;;96.07;9.15;;;;;;;24.86;60.40;98902.25;7300169;19;130083;-41
2023/07/03 09:12:14;;;;;;;94.20;8.57;;;;;;;24.78;59.97;98894.41;7302096;19;130518;-39
2023/07/03 09:14:49;;;;;;;93.35;8.27;;;;;;;24.88;60.51;98916.00;7303206;19;129858;-39
2023/07/03 09:17:15;;;;;;;89.57;8.23;;;;;;;24.84;59.44;98909.47;7303358;19;129394;-40
2023/07/03 09:19:44;;;;;;;82.10;7.80;;;;;;;24.85;59.49;98903.22;7303503;19;129806;-40
2023/07/03 09:22:43;;;;;;;78.70;7.50;;;;;;;24.89;60.15;98909.78;7303268;19;129824;-41
2023/07/03 09:25:18;;;;;;;87.40;8.35;;;;;;;24.87;60.72;98904.69;7300708;19;130410;-40
2023/07/03 09:27:47;;;;;;;100.72;9.32;;;;;;;24.86;59.93;98902.25;7302887;19;129652;-39
2023/07/03 09:30:14;;;;;;;100.50;9.23;;;;;;;24.86;59.76;98899.59;7301195;19;130324;-41
2023/07/03 09:32:39;;;;;;;75.53;7.95;;;;;;;24.76;59.41;98888.53;7299862;19;131915;-40
2023/07/03 09:35:10;;;;;;;84.20;8.00;;;;;;;24.87;60.19;98914.38;7303015;19;129432;-38
2023/07/03 09:37:37;;;;;;;67.05;7.55;;;;;;;24.86;59.58;98900.41;7299605;19;130025;-41
2023/07/03 09:40:08;;;;;;;94.05;8.57;;;;;;;24.87;59.51;98909.94;7301269;19;129597;-38
2023/07/03 09:42:34;;;;;;;85.53;8.00;;;;;;;24.84;59.70;98914.75;7302416;19;130226;-39
2023/07/03 09:44:59;;;;;;;75.07;7.83;;;;;;;24.87;60.02;98909.13;7303563;19;130678;-40
2023/07/03 09:47:28;;;;;;;75.70;7.77;;;;;;;24.88;60.26;98921.25;7298559;19;129272;-40
2023/07/03 09:50:01;;;;;;;100.43;8.60;;;;;;;24.86;60.08;98918.81;7297695;19;131049;-40
2023/07/03 09:52:26;;;;;;;129.50;10.15;;;;;;;24.85;60.09;98919.00;7298469;19;130731;-40
2023/07/03 09:54:53;;;;;;;108.27;9.30;;;;;;;24.86;59.80;98912.75;7303611;19;130107;-40
2023/07/03 09:57:27;;;;;;;99.38;9.05;;;;;;;24.79;60.12;98909.19;7299825;19;130346;-40
2023/07/03 10:00:14;;;;;;;97.22;8.93;;;;;;;24.87;60.69;98922.28;7295845;19;130302;-40
2023/07/03 10:02:43;;;;;;;79.53;8.05;;;;;;;24.86;59.45;98921.44;7300016;19;131008;-41
2023/07/03 10:05:14;;;;;;;80.00;7.20;;;;;;;24.87;60.80;98924.91;7299969;19;130287;-39
2023/07/03 10:07:43;;;;;;;86.90;7.90;;;;;;;24.86;59.66;98918.81;7299268;19;129526;-39
2023/07/03 10:10:11;;;;;;;81.43;7.63;;;;;;;24.86;59.90;98924.06;7300197;19;130267;-40
2023/07/03 10:12:44;;;;;;;61.97;7.22;;;;;;;24.87;60.32;98924.91;7301641;19;129661;-42
2023/07/03 10:15:20;;;;;;;68.30;7.47;;;;;;;24.87;60.56;98924.91;7302177;19;129480;-40
2023/07/03 10:17:52;;;;;;;106.73;9.27;;;;;;;24.84;59.57;98920.00;7296563;19;129505;-42
2023/07/03 10:20:27;;;;;;;83.80;8.15;;;;;;;24.85;60.10;98926.88;7298897;19;129145;-42
2023/07/03 10:22:54;;;;;;;84.75;8.13;;;;;;;24.84;59.28;98920.00;7300606;19;129845;-42
2023/07/03 10:25:36;;;;;;;77.80;8.05;;;;;;;24.86;59.68;98923.28;7299330;19;129933;-39
2023/07/03 10:28:28;;;;;;;82.30;8.38;;;;;;;24.85;60.01;98921.63;7301566;19;131479;-42
2023/07/03 10:30:58;;;;;;;86.75;8.38;;;;;;;24.85;59.38;98926.88;7300922;19;130430;-40
2023/07/03 10:33:32;;;;;;;79.88;7.57;;;;;;;24.85;59.91;98934.78;7300286;19;130147;-42
2023/07/03 10:36:02;;;;;;;88.07;9.13;;;;;;;24.83;59.26;98919.16;7300822;19;129436;-41
2023/07/03 10:38:34;;;;;;;94.25;8.80;;;;;;;24.83;60.07;98934.94;7300707;19;129855;-39
2023/07/03 10:41:09;;;;;;;83.22;8.00;;;;;;;24.85;59.93;98932.13;7298814;19;130253;-42
2023/07/03 10:43:42;;;;;;;90.05;8.40;;;;;;;24.81;60.33;98926.41;7299955;19;130743;-39
2023/07/03 10:46:15;;;;;;;61.70;6.88;;;;;;;24.84;59.50;98920.78;7299108;19;129649;-39
2023/07/03 10:48:42;;;;;;;52.60;6.15;;;;;;;24.77;60.15;98919.06;7299105;19;129676;-42
2023/07/03 10:51:23;;;;;;;81.45;8.07;;;;;;;24.86;60.14;98928.53;7301304;19;129559;-40
2023/07/03 10:53:54;;;;;;;101.35;8.68;;;;;;;24.85;60.34;98921.63;7300219;19;130326;-41
2023/07/03 10:56:30;;;;;;;70.15;6.68;;;;;;;24.76;60.25;98912.19;7300357;19;130095;-41
2023/07/03 10:59:32;;;;;;;88.07;8.27;;;;;;;24.87;59.96;98922.28;7297047;19;131545;-43
2023/07/03 11:01:58;;;;;;;60.88;6.65;;;;;;;24.84;59.46;98926.06;7300996;19;130005;-40
2023/07/03 11:04:35;;;;;;;48.37;6.13;;;;;;;24.86;60.06;98931.16;7299732;19;130606;-39
2023/07/03 11:07:12;;;;;;;65.38;6.50;;;;;;;24.83;60.67;98908.66;7297460;19;130508;-39
2023/07/03 11:09:42;;;;;;;105.57;9.00;;;;;;;24.85;60.30;98916.38;7293669;19;130464;-43
2023/07/03 11:12:41;;;;;;;90.07;7.85;;;;;;;24.76;60.39;98914.81;7298018;19;129008;-39
2023/07/03 11:15:06;;;;;;;78.97;7.70;;;;;;;24.85;59.67;98924.25;7299170;19;129513;-40
2023/07/03 11:17:43;;;;;;;71.67;6.97;;;;;;;24.85;59.73;98921.63;7300274;19;130323;-41
2023/07/03 11:20:16;;;;;;;;;;;;;;;24.92;59.83;98933.06;7299477;19;132483;-38